• Join FlightAware (Why Join?)
  • Login
  • US Flag 
06:57PM EDT


 

Airport Tracker/Info


-or-


 

Live Flight TrackerFlight Track Log ✈ DAL1868 ✈ 01-May-2012 ✈ KAUS - KATL

Flight Track Log - Related Links

Times and Time Zones

All times are in EDT time to prevent confusion due to time zone crossing. See the DAL1868 flight status page for this flight to view local times or setup timezone preferences in your user account.

Time Position Orientation Groundspeed Altitude Reporting Facility
EDT Latitude Longitude Course Direction KTS MPH feet Rate Location/Type
12:31PM 30.3122 -97.5689 188° South  Level FlightAware Approximate
12:32PM 30.0867 -97.6056 45° Northeast 272 313 6,200  Level Houston Center
12:33PM 30.1436 -97.5392 37° Northeast 313 360 8,800 1,380 Climbing Houston Center
12:34PM 30.2131 -97.4783 54° Northeast 339 390 9,000 480 Climbing Houston Center
12:35PM 30.2622 -97.3994 60° Northeast 312 359 9,800 2,100 Climbing Houston Center
12:36PM 30.3033 -97.3178 60° Northeast 295 339 13,200 2,940 Climbing Houston Center
12:37PM 30.3419 -97.2406 81° East 295 339 15,700 1,920 Climbing Houston Center
12:38PM 30.3567 -97.1331 94° East 326 375 17,100 1,320 Climbing Houston Center
12:39PM 30.3494 -97.0053 94° East 356 410 18,400 1,680 Climbing Houston Center
12:40PM 30.3422 -96.8700 94° East 411 473 20,500 2,220 Climbing Houston Center
12:41PM 30.3331 -96.7278 92° East 431 496 22,900 2,280 Climbing Houston Center
12:42PM 30.3297 -96.5906 63° Northeast 431 496 25,100 1,380 Climbing Houston Center
12:44PM 30.4500 -96.3122 62° Northeast 484 557 27,200 1,800 Climbing Houston Center
12:46PM 30.5806 -96.0314 62° Northeast 465 535 32,400 1,860 Climbing Houston Center
12:47PM 30.6433 -95.8942 63° Northeast 458 527 32,900 960 Climbing Houston Center
12:48PM 30.6994 -95.7661 63° Northeast 469 540 34,400 1,500 Climbing Houston Center
12:49PM 30.7619 -95.6236 62° Northeast 479 551 36,000 1,440 Climbing Houston Center
12:50PM 30.8244 -95.4858 63° Northeast 479 551 37,300 960 Climbing Houston Center
12:51PM 30.8847 -95.3478 73° East 479 551 38,000 300 Climbing Houston Center
12:52PM 30.9239 -95.1994 74° East 479 551 38,000  Level Houston Center
12:53PM 30.9611 -95.0506 73° East 469 540 38,000  Level Houston Center
12:54PM 31.0003 -94.9017 73° East 474 545 38,000  Level Houston Center
12:55PM 31.0417 -94.7456 73° East 479 551 38,000  Level Houston Center
12:56PM 31.0825 -94.5917 72° East 489 563 38,000  Level Houston Center
12:57PM 31.1233 -94.4403 74° East 488 562 38,000  Level Houston Center
12:58PM 31.1619 -94.2861 74° East 483 556 38,000  Level Houston Center
12:59PM 31.2003 -94.1342 74° East 483 556 38,100 480 Climbing Houston Center
01:00PM 31.2361 -93.9844 74° East 483 556 39,000 420 Climbing Houston Center
01:01PM 31.2722 -93.8347 75° East 478 550 39,000  Level Houston Center
01:02PM 31.3078 -93.6825 75° East 478 550 39,000  Level Houston Center
01:03PM 31.3456 -93.5206 74° East 471 542 39,000  Level Houston Center
01:04PM 31.3831 -93.3656 74° East 477 549 39,000  Level Houston Center
01:05PM 31.4183 -93.2250 75° East 484 557 39,000  Level Houston Center
01:06PM 31.4533 -93.0675 75° East 489 563 39,000  Level Houston Center
01:07PM 31.4883 -92.9169 75° East 489 563 39,000  Level Houston Center
01:08PM 31.5228 -92.7667 73° East 484 557 39,000  Level Houston Center
01:09PM 31.5617 -92.6158 76° East 479 551 39,000  Level Houston Center
01:10PM 31.5939 -92.4653 75° East 479 551 39,000  Level Houston Center
01:11PM 31.6303 -92.3094 74° East 474 545 39,000  Level Houston Center
01:12PM 31.6664 -92.1561 76° East 479 551 39,000  Level Houston Center
01:13PM 31.7022 -91.9856 74° East 484 557 39,000  Level Houston Center
01:14PM 31.7381 -91.8342 76° East 484 557 39,000  Level Houston Center
01:16PM 31.8000 -91.5500 75° East 472 543 39,000  Level Memphis Center
01:17PM 31.8347 -91.4014 75° East 472 543 39,000  Level Memphis Center
01:18PM 31.8692 -91.2503 77° East 472 543 39,000  Level Memphis Center
01:19PM 31.8972 -91.1086 76° East 472 543 39,000  Level Memphis Center
01:20PM 31.9294 -90.9594 75° East 472 543 39,000  Level Memphis Center
01:21PM 31.9633 -90.8056 76° East 472 543 39,000  Level Memphis Center
01:22PM 31.9953 -90.6561 76° East 472 543 39,000  Level Memphis Center
01:23PM 32.0267 -90.5044 76° East 472 543 39,000  Level Memphis Center
01:24PM 32.0581 -90.3572 76° East 467 537 39,000  Level Memphis Center
01:25PM 32.0894 -90.2053 76° East 467 537 39,000  Level Memphis Center
01:26PM 32.1203 -90.0533 76° East 472 543 39,000  Level Memphis Center
01:27PM 32.1533 -89.9008 76° East 472 543 39,000  Level Memphis Center
01:28PM 32.1861 -89.7486 77° East 472 543 39,000  Level Memphis Center
01:29PM 32.2164 -89.5936 76° East 472 543 39,000 -420 Level Memphis Center
01:31PM 32.2850 -89.2711 77° East 472 543 37,800 -720 Descending Memphis Center
01:32PM 32.3150 -89.1183 77° East 477 549 37,000 -420 Descending Memphis Center
01:33PM 32.3447 -88.9606 78° East 477 549 37,000  Level Memphis Center
01:34PM 32.3917 -88.6878 83° East 468 539 37,000  Level Atlanta Center
01:35PM 32.4047 -88.5581 83° East 480 552 37,000  Level Atlanta Center
01:36PM 32.4236 -88.3842 81° East 485 558 37,000  Level Atlanta Center
01:37PM 32.4436 -88.2278 81° East 485 558 37,000  Level Atlanta Center
01:38PM 32.4633 -88.0761 84° East 480 552 37,000 -300 Level Atlanta Center
01:39PM 32.4792 -87.9044 83° East 485 558 36,500 -780 Descending Atlanta Center
01:40PM 32.4944 -87.7475 82° East 479 551 35,500 -780 Descending Atlanta Center
01:41PM 32.5136 -87.5931 78° East 474 545 35,000 -540 Descending Atlanta Center
01:42PM 32.5408 -87.4392 76° East 481 554 34,500 -1,020 Descending Atlanta Center
01:43PM 32.5744 -87.2825 73° East 487 560 33,000 -1,380 Descending Atlanta Center
01:44PM 32.6139 -87.1286 74° East 487 560 31,800 -1,320 Descending Atlanta Center
01:45PM 32.6511 -86.9697 74° East 487 560 30,400 -1,260 Descending Atlanta Center
01:46PM 32.6856 -86.8278 74° East 492 566 29,300 -1,080 Descending Atlanta Center
01:47PM 32.7247 -86.6611 75° East 505 581 28,300 -1,140 Descending Atlanta Center
01:48PM 32.7614 -86.5017 75° East 505 581 27,100 -1,440 Descending Atlanta Center
01:50PM 32.8367 -86.1700 75° East 500 575 24,000 -1,080 Descending Atlanta Center
01:51PM 32.8725 -86.0125 76° East 490 564 24,000  Level Atlanta Center
01:52PM 32.9064 -85.8525 72° East 482 555 24,000 -180 Level Atlanta Center
01:53PM 32.9481 -85.7022 66° East 482 555 23,700 -1,560 Descending Atlanta Center
01:54PM 33.0022 -85.5597 67° East 482 555 20,900 -2,760 Descending Atlanta Center
01:55PM 33.0519 -85.4167 67° East 472 543 18,200 -2,520 Descending Atlanta Center
01:56PM 33.0969 -85.2886 69° East 438 504 15,800 -1,920 Descending Atlanta Center
01:58PM 33.1464 -85.1353 62° Northeast 419 482 14,000 -840 Descending Atlanta Center
01:59PM 33.1997 -85.0144 49° Northeast 413 475 14,000  Level Atlanta Center
02:00PM 33.2778 -84.9086 48° Northeast 408 470 14,000  Level Atlanta Center
02:01PM 33.3536 -84.8072 48° Northeast 408 470 14,000  Level Atlanta Center
02:02PM 33.4144 -84.7258 48° Northeast 363 418 14,000 -720 Level Atlanta Center
02:04PM 33.5175 -84.5869 67° East 291 335 12,000 -960 Descending Atlanta Center
02:05PM 33.5450 -84.5075 90° East 276 318 11,200 -1,020 Descending Atlanta Center
02:06PM 33.5453 -84.4203 93° East 250 288 10,000 -1,200 Descending Atlanta Center
02:07PM 33.5414 -84.3378 85° East 250 288 8,900 -1,260 Descending Atlanta Center
02:08PM 33.5500 -84.2167 90° East 237 273 7,000 -1,560 Descending Atlanta TRACON
02:09PM 33.5500 -84.1333 360° North 230 265 5,200 -1,620 Descending Atlanta TRACON
02:10PM 33.6000 -84.1333 287° West 237 273 3,800 -900 Descending Atlanta TRACON
02:11PM 33.6167 -84.2000 270° West 226 260 3,500 -300 Descending Atlanta TRACON
02:12PM 33.6167 -84.2667 270° West 195 224 3,300 -600 Descending Atlanta TRACON
02:13PM 33.6167 -84.3333 270° West 196 226 2,300 -900 Descending Atlanta TRACON
02:14PM 33.6167 -84.4000 270° West 156 180 1,500 -840 Descending Atlanta TRACON